createdAt,value
2023-01-29T00:04:22.644Z,101117.88
2023-01-29T00:09:24.654Z,101109.79
2023-01-29T00:14:27.259Z,101106.42
2023-01-29T00:19:29.343Z,101097.05
2023-01-29T00:24:31.366Z,101086.94
2023-01-29T00:29:33.624Z,101091.74
2023-01-29T00:34:35.809Z,101094.05
2023-01-29T00:39:47.809Z,101098.09
2023-01-29T00:44:57.108Z,101089.36
2023-01-29T00:50:00.405Z,101090.33
2023-01-29T00:55:05.509Z,101092.96
2023-01-29T01:00:11.678Z,101088.64
2023-01-29T01:05:18.997Z,101094.96
2023-01-29T01:10:27.573Z,101087.48
2023-01-29T01:15:40.058Z,101078.83
2023-01-29T01:20:42.110Z,101069.31
2023-01-29T01:25:44.159Z,101063.70
2023-01-29T01:30:46.129Z,101063.88
2023-01-29T01:35:48.123Z,101068.02
2023-01-29T01:40:50.083Z,101072.84
2023-01-29T01:45:52.050Z,101076.21
2023-01-29T01:51:03.033Z,101074.94
2023-01-29T01:56:09.591Z,101078.95
2023-01-29T02:01:12.473Z,101077.60
2023-01-29T02:06:33.140Z,101062.52
2023-01-29T02:11:35.907Z,101052.19
2023-01-29T02:16:38.595Z,101051.77
2023-01-29T02:21:49.642Z,101038.19
2023-01-29T02:27:20.578Z,101023.49
2023-01-29T02:32:40.962Z,101016.02
2023-01-29T02:38:09.727Z,101007.28
2023-01-29T02:43:11.637Z,100994.27
2023-01-29T02:48:19.772Z,100996.75
2023-01-29T02:53:33.763Z,100999.57
2023-01-29T02:58:59.937Z,100999.20
2023-01-29T03:04:12.235Z,100997.45
2023-01-29T03:09:22.440Z,100983.78
2023-01-29T03:14:52.764Z,100984.59
2023-01-29T03:19:55.040Z,100981.79
2023-01-29T03:25:17.119Z,100977.36
2023-01-29T03:30:38.339Z,100978.39
2023-01-29T03:35:49.399Z,100973.03
2023-01-29T03:41:19.186Z,100968.61
2023-01-29T03:46:35.121Z,100962.31
2023-01-29T03:52:02.586Z,100960.29
2023-01-29T03:57:20.783Z,100964.20
2023-01-29T04:02:30.181Z,100963.08
2023-01-29T04:07:34.406Z,100957.17
2023-01-29T04:12:47.655Z,100941.71
2023-01-29T04:17:52.385Z,100927.05
2023-01-29T04:22:54.581Z,100924.85
2023-01-29T04:28:21.522Z,100921.19
2023-01-29T04:33:40.011Z,100915.64
2023-01-29T04:39:00.112Z,100910.36
2023-01-29T04:44:06.608Z,100904.40
2023-01-29T04:49:18.561Z,100890.81
2023-01-29T04:54:39.366Z,100902.30
2023-01-29T04:59:47.866Z,100900.48
2023-01-29T05:04:51.498Z,100893.44
2023-01-29T05:09:54.234Z,100887.41
2023-01-29T05:15:00.427Z,100895.08
2023-01-29T05:20:02.637Z,100894.27
2023-01-29T05:25:25.059Z,100887.42
2023-01-29T05:30:27.273Z,100879.93
2023-01-29T05:35:30.522Z,100880.67
2023-01-29T05:40:33.171Z,100890.33
2023-01-29T05:45:35.088Z,100898.23
2023-01-29T05:50:37.146Z,100895.16
2023-01-29T05:55:39.241Z,100876.99
2023-01-29T06:00:42.248Z,100870.50
2023-01-29T06:05:44.266Z,100868.75
2023-01-29T06:10:46.320Z,100863.45
2023-01-29T06:15:48.587Z,100862.76
2023-01-29T06:20:50.691Z,100870.94
2023-01-29T06:25:52.597Z,100865.58
2023-01-29T06:31:08.220Z,100866.10
2023-01-29T06:36:18.395Z,100871.98
2023-01-29T06:41:24.820Z,100871.45
2023-01-29T06:46:26.804Z,100865.56
2023-01-29T06:51:28.908Z,100864.97
2023-01-29T06:56:31.431Z,100867.30
2023-01-29T07:01:36.422Z,100850.70
2023-01-29T07:06:39.845Z,100859.33
2023-01-29T07:11:41.852Z,100858.11
2023-01-29T07:16:43.954Z,100852.42
2023-01-29T07:21:45.989Z,100859.71
2023-01-29T07:26:47.888Z,100865.84
2023-01-29T07:31:50.661Z,100865.09
2023-01-29T07:36:54.534Z,100857.33
2023-01-29T07:41:56.450Z,100846.11
2023-01-29T07:46:58.387Z,100833.48
2023-01-29T07:52:00.311Z,100821.38
2023-01-29T07:57:02.218Z,100827.39
2023-01-29T08:02:04.282Z,100819.63
2023-01-29T08:07:06.364Z,100818.27
2023-01-29T08:12:08.472Z,100808.41
2023-01-29T08:17:10.749Z,100812.29
2023-01-29T08:22:12.778Z,100811.05
2023-01-29T08:27:14.740Z,100802.17
2023-01-29T08:32:16.688Z,100792.15
2023-01-29T08:37:18.608Z,100786.23
2023-01-29T08:42:20.620Z,100780.44
2023-01-29T08:47:22.704Z,100774.30
2023-01-29T08:52:24.861Z,100765.61
2023-01-29T08:57:27.725Z,100761.02
2023-01-29T09:02:36.142Z,100761.30
2023-01-29T09:07:38.260Z,100765.34
2023-01-29T09:12:40.273Z,100765.35
2023-01-29T09:17:42.908Z,100773.70
2023-01-29T09:22:48.081Z,100777.92
2023-01-29T09:27:50.348Z,100783.92
2023-01-29T09:32:54.209Z,100777.48
2023-01-29T09:37:56.934Z,100762.73
2023-01-29T09:43:07.536Z,100767.59
2023-01-29T09:48:11.526Z,100759.21
2023-01-29T09:53:25.913Z,100757.59
2023-01-29T09:58:38.447Z,100752.75
2023-01-29T10:04:05.872Z,100750.64
2023-01-29T10:09:29.040Z,100744.57
2023-01-29T10:14:37.999Z,100737.77
2023-01-29T10:19:52.312Z,100724.00
2023-01-29T10:25:00.364Z,100721.73
2023-01-29T10:30:09.141Z,100717.60
2023-01-29T10:35:31.205Z,100707.13
2023-01-29T10:40:47.014Z,100700.11
2023-01-29T10:46:07.364Z,100685.94
2023-01-29T10:51:46.662Z,100674.89
2023-01-29T10:57:38.236Z,100671.59
2023-01-29T11:02:45.925Z,100666.55
2023-01-29T11:07:56.255Z,100657.16
2023-01-29T11:12:59.363Z,100657.73
2023-01-29T11:18:13.240Z,100646.69
2023-01-29T11:23:30.794Z,100639.61
2023-01-29T11:28:36.211Z,100632.81
2023-01-29T11:33:38.351Z,100628.52
2023-01-29T11:38:40.294Z,100620.67
2023-01-29T11:43:42.220Z,100609.27
2023-01-29T11:48:49.750Z,100619.92
2023-01-29T11:53:58.291Z,100605.59
2023-01-29T11:59:04.707Z,100604.20
2023-01-29T12:04:21.874Z,100597.48
2023-01-29T12:09:28.950Z,100583.42
2023-01-29T12:14:36.755Z,100581.68
2023-01-29T12:20:00.588Z,100577.46
2023-01-29T12:25:36.236Z,100569.57
2023-01-29T12:31:13.776Z,100561.66
2023-01-29T12:36:32.292Z,100562.46
2023-01-29T12:41:38.270Z,100561.99
2023-01-29T12:46:52.689Z,100563.61
2023-01-29T12:52:06.977Z,100566.84
2023-01-29T12:57:20.613Z,100581.60
2023-01-29T13:02:39.585Z,100587.73
2023-01-29T13:07:47.041Z,100574.95
2023-01-29T13:13:06.959Z,100558.90
2023-01-29T13:18:18.299Z,100554.23
2023-01-29T13:23:24.164Z,100533.11
2023-01-29T13:28:27.726Z,100527.52
2023-01-29T13:33:30.421Z,100522.87
2023-01-29T13:38:35.073Z,100521.81
2023-01-29T13:43:43.047Z,100520.35
2023-01-29T13:48:49.261Z,100517.42
2023-01-29T13:54:07.437Z,100509.96
2023-01-29T13:59:44.719Z,100509.98
2023-01-29T14:04:46.736Z,100511.67
2023-01-29T14:09:50.731Z,100507.97
2023-01-29T14:14:59.087Z,100507.48
2023-01-29T14:20:17.052Z,100509.77
2023-01-29T14:25:22.233Z,100502.73
2023-01-29T14:30:27.562Z,100503.58
2023-01-29T14:35:33.747Z,100504.66
2023-01-29T14:40:36.831Z,100498.06
2023-01-29T14:45:44.246Z,100495.27
2023-01-29T14:50:50.137Z,100494.98
2023-01-29T14:56:14.277Z,100498.17
2023-01-29T15:01:39.227Z,100508.81
2023-01-29T15:06:48.226Z,100513.33
2023-01-29T15:12:00.238Z,100511.16
2023-01-29T15:17:06.518Z,100508.86
2023-01-29T15:22:21.453Z,100506.70
2023-01-29T15:27:23.503Z,100504.19
2023-01-29T15:32:34.817Z,100484.83
2023-01-29T15:37:38.021Z,100471.84
2023-01-29T15:42:48.314Z,100462.23
2023-01-29T15:47:51.274Z,100460.23
2023-01-29T15:52:55.025Z,100461.89
2023-01-29T15:57:57.604Z,100458.73
2023-01-29T16:03:01.209Z,100458.89
2023-01-29T16:08:04.965Z,100455.88
2023-01-29T16:13:19.183Z,100442.55
2023-01-29T16:18:24.817Z,100442.80
2023-01-29T16:23:30.884Z,100430.70
2023-01-29T16:28:39.248Z,100418.79
2023-01-29T16:33:45.836Z,100405.95
2023-01-29T16:39:17.672Z,100399.84
2023-01-29T16:44:19.646Z,100396.48
2023-01-29T16:49:31.210Z,100397.36
2023-01-29T16:54:33.226Z,100388.52
2023-01-29T16:59:39.929Z,100388.64
2023-01-29T17:04:42.581Z,100388.73
2023-01-29T17:09:51.568Z,100394.52
2023-01-29T17:15:03.934Z,100399.94
2023-01-29T17:20:14.381Z,100400.94
2023-01-29T17:25:19.029Z,100392.34
2023-01-29T17:30:23.652Z,100396.15
2023-01-29T17:35:25.716Z,100397.00
2023-01-29T17:40:42.595Z,100396.50
2023-01-29T17:45:45.075Z,100385.73
2023-01-29T17:50:50.803Z,100377.10
2023-01-29T17:55:53.083Z,100367.00
2023-01-29T18:00:55.587Z,100348.78
2023-01-29T18:05:57.846Z,100350.02
2023-01-29T18:11:00.462Z,100341.35
2023-01-29T18:16:03.579Z,100335.16
2023-01-29T18:21:07.655Z,100328.96
2023-01-29T18:26:11.519Z,100324.58
2023-01-29T18:31:14.336Z,100315.52
2023-01-29T18:36:16.838Z,100297.52
2023-01-29T18:41:22.932Z,100293.58
2023-01-29T18:46:29.047Z,100282.98
2023-01-29T18:51:31.609Z,100273.42
2023-01-29T18:56:34.298Z,100266.80
2023-01-29T19:01:36.608Z,100255.39
2023-01-29T19:06:38.779Z,100241.12
2023-01-29T19:11:40.858Z,100217.02
2023-01-29T19:16:43.712Z,100217.34
2023-01-29T19:21:45.795Z,100206.93
2023-01-29T19:26:48.693Z,100210.27
2023-01-29T19:31:50.869Z,100203.70
2023-01-29T19:36:52.900Z,100205.58
2023-01-29T19:41:55.014Z,100195.69
2023-01-29T19:46:57.438Z,100186.83
2023-01-29T19:52:01.918Z,100184.05
2023-01-29T19:57:04.255Z,100170.70
2023-01-29T20:02:06.571Z,100171.95
2023-01-29T20:07:08.941Z,100174.23
2023-01-29T20:12:11.937Z,100153.48
2023-01-29T20:17:15.648Z,100141.86
2023-01-29T20:22:18.100Z,100142.97
2023-01-29T20:27:20.196Z,100138.29
2023-01-29T20:32:22.249Z,100138.89
2023-01-29T20:37:24.482Z,100127.76
2023-01-29T20:42:26.643Z,100114.44
2023-01-29T20:47:28.711Z,100100.61
2023-01-29T20:52:30.705Z,100089.95
2023-01-29T20:57:33.008Z,100074.40
2023-01-29T21:02:35.309Z,100062.52
2023-01-29T21:07:37.307Z,100051.36
2023-01-29T21:12:39.429Z,100037.94
2023-01-29T21:17:41.350Z,100031.37
2023-01-29T21:22:44.519Z,100020.04
2023-01-29T21:27:46.606Z,100016.54
2023-01-29T21:32:48.563Z,100011.04
2023-01-29T21:37:50.611Z,100007.05
2023-01-29T21:43:15.020Z,100002.02
2023-01-29T21:48:17.000Z,99997.68
2023-01-29T21:53:19.817Z,99981.34
2023-01-29T21:58:21.906Z,99969.49
2023-01-29T22:03:23.967Z,99960.30
2023-01-29T22:08:25.980Z,99952.81
2023-01-29T22:13:27.953Z,99948.39
2023-01-29T22:18:29.909Z,99934.96
2023-01-29T22:23:32.320Z,99935.85
2023-01-29T22:28:34.713Z,99925.14
2023-01-29T22:33:36.959Z,99910.43
2023-01-29T22:38:39.031Z,99901.09
2023-01-29T22:43:41.073Z,99897.86
2023-01-29T22:48:43.652Z,99885.20
2023-01-29T22:53:54.315Z,99877.00
2023-01-29T22:58:59.145Z,99868.29
2023-01-29T23:04:01.071Z,99852.88
2023-01-29T23:09:03.231Z,99843.27
2023-01-29T23:14:05.212Z,99831.80
2023-01-29T23:19:07.378Z,99821.70
2023-01-29T23:24:09.969Z,99803.42
2023-01-29T23:29:12.817Z,99790.63
2023-01-29T23:34:15.163Z,99770.29
2023-01-29T23:39:17.291Z,99761.86
2023-01-29T23:44:20.191Z,99746.98
2023-01-29T23:49:22.292Z,99734.46
2023-01-29T23:54:24.621Z,99726.35
2023-01-29T23:59:28.526Z,99711.11
